Time;durP1;ratioP1;P1;durP2;ratioP2;P2;SDS_P1;SDS_P2;PMS_P1;PMS_P2;Temp;Humidity;BMP_temperature;BMP_pressure;BME280_temperature;BME280_humidity;BME280_pressure;Samples;Min_cycle;Max_cycle;Signal;HPM_P1;HPM_P2
2024/01/22 00:00:35;;;;;;;0.50;0.50;;;6.10;99.90;;;;;;7366906;19;20138;-74
2024/01/22 00:03:02;;;;;;;2.30;0.63;;;6.10;99.90;;;;;;7389281;19;20131;-74
2024/01/22 00:05:28;;;;;;;0.43;0.43;;;6.00;99.90;;;;;;7366383;19;20245;-74
2024/01/22 00:07:53;;;;;;;0.30;0.30;;;5.90;99.90;;;;;;7367519;19;20220;-74
2024/01/22 00:10:19;;;;;;;0.40;0.40;;;5.90;99.90;;;;;;7366377;19;20231;-74
2024/01/22 00:12:45;;;;;;;1.27;0.67;;;5.70;99.90;;;;;;7366330;19;20500;-74
2024/01/22 00:15:11;;;;;;;1.10;0.77;;;5.60;99.90;;;;;;7389725;19;20647;-75
2024/01/22 00:17:36;;;;;;;0.40;0.40;;;5.60;99.90;;;;;;7367101;19;20398;-74
2024/01/22 00:20:03;;;;;;;0.93;0.63;;;5.40;99.90;;;;;;7364743;19;20193;-74
2024/01/22 00:22:29;;;;;;;0.37;0.37;;;5.40;99.90;;;;;;7364435;19;20190;-74
2024/01/22 00:24:55;;;;;;;0.50;0.50;;;5.50;99.90;;;;;;7366908;19;20209;-72
2024/01/22 00:27:21;;;;;;;0.57;0.57;;;5.50;99.90;;;;;;7388420;19;20634;-73
2024/01/22 00:29:47;;;;;;;1.40;0.67;;;5.50;99.90;;;;;;7367587;19;20200;-74
2024/01/22 00:32:13;;;;;;;0.90;0.77;;;5.60;99.90;;;;;;7368034;19;20186;-75
2024/01/22 00:34:38;;;;;;;0.60;0.50;;;5.60;99.90;;;;;;7367366;19;20679;-73
2024/01/22 00:37:04;;;;;;;0.73;0.73;;;5.90;99.90;;;;;;7368719;19;20202;-72
2024/01/22 00:39:30;;;;;;;0.50;0.50;;;5.60;99.90;;;;;;7366865;19;20146;-76
2024/01/22 00:41:56;;;;;;;0.60;0.60;;;5.50;99.90;;;;;;7387070;19;20499;-73
2024/01/22 00:44:23;;;;;;;0.43;0.30;;;5.80;99.90;;;;;;7364970;19;20190;-74
2024/01/22 00:46:49;;;;;;;0.30;0.30;;;5.90;99.90;;;;;;7366356;19;20202;-74
2024/01/22 00:49:15;;;;;;;0.47;0.47;;;5.80;99.90;;;;;;7364053;19;20190;-74
2024/01/22 00:51:41;;;;;;;0.30;0.30;;;5.80;99.90;;;;;;7366986;19;20624;-74
2024/01/22 00:54:06;;;;;;;0.70;0.70;;;5.70;99.90;;;;;;7387428;19;20264;-74
2024/01/22 00:56:33;;;;;;;0.43;0.37;;;5.30;99.90;;;;;;7365863;19;20190;-74
2024/01/22 00:58:59;;;;;;;0.97;0.70;;;4.80;99.90;;;;;;7365467;19;20221;-74
2024/01/22 01:01:25;;;;;;;0.63;0.57;;;4.80;99.90;;;;;;7362686;19;20194;-74
2024/01/22 01:03:51;;;;;;;0.27;0.27;;;4.60;99.90;;;;;;7366897;19;20198;-74
2024/01/22 01:06:17;;;;;;;0.50;0.50;;;4.60;99.90;;;;;;7386939;19;20254;-73
2024/01/22 01:08:42;;;;;;;0.87;0.53;;;4.50;99.90;;;;;;7366706;19;20232;-75
2024/01/22 01:11:08;;;;;;;1.33;0.50;;;4.50;99.90;;;;;;7364631;19;20282;-74
2024/01/22 01:13:34;;;;;;;0.73;0.60;;;4.70;99.90;;;;;;7358209;19;20194;-73
2024/01/22 01:16:01;;;;;;;0.80;0.67;;;4.90;99.90;;;;;;7364822;19;20201;-73
2024/01/22 01:18:26;;;;;;;0.70;0.57;;;4.80;99.90;;;;;;7386014;19;20155;-74
2024/01/22 01:20:52;;;;;;;1.30;0.50;;;5.10;99.90;;;;;;7363335;19;20265;-74
2024/01/22 01:23:18;;;;;;;0.57;0.50;;;5.00;99.90;;;;;;7366114;19;20208;-74
2024/01/22 01:25:43;;;;;;;0.30;0.30;;;5.00;99.90;;;;;;7362419;19;20269;-74
2024/01/22 01:28:09;;;;;;;0.40;0.40;;;5.20;99.90;;;;;;7365144;19;20596;-74
2024/01/22 01:30:35;;;;;;;0.77;0.50;;;5.30;99.90;;;;;;7364161;19;20548;-73
2024/01/22 01:33:01;;;;;;;0.53;0.53;;;5.20;99.90;;;;;;7384299;19;20135;-73
2024/01/22 01:35:26;;;;;;;0.40;0.40;;;4.80;99.90;;;;;;7365747;19;20869;-72
2024/01/22 01:37:52;;;;;;;0.47;0.47;;;4.80;99.90;;;;;;7364318;19;20186;-73
2024/01/22 01:40:18;;;;;;;0.60;0.60;;;4.90;99.90;;;;;;7364010;19;20193;-73
2024/01/22 01:42:44;;;;;;;0.30;0.30;;;4.90;99.90;;;;;;7363165;19;20173;-73
2024/01/22 01:45:14;;;;;;;0.50;0.50;;;4.80;99.90;;;;;;7386754;19;20206;-74
2024/01/22 01:47:47;;;;;;;0.77;0.63;;;4.70;99.90;;;;;;7364992;19;20210;-73
2024/01/22 01:50:14;;;;;;;0.50;0.50;;;4.70;99.90;;;;;;7362998;19;20204;-73
2024/01/22 01:52:42;;;;;;;0.50;0.50;;;4.70;99.90;;;;;;7363896;19;20189;-75
2024/01/22 01:55:09;;;;;;;1.80;0.60;;;5.00;99.90;;;;;;7367468;19;20690;-74
2024/01/22 01:57:37;;;;;;;0.30;0.30;;;5.20;99.90;;;;;;7372092;19;20493;-74
2024/01/22 02:00:08;;;;;;;0.50;0.50;;;5.30;99.90;;;;;;7390271;19;20146;-73
2024/01/22 02:02:33;;;;;;;0.97;0.60;;;5.30;99.90;;;;;;7370868;19;20277;-73
2024/01/22 02:05:01;;;;;;;1.10;0.60;;;5.30;99.90;;;;;;7370786;19;20210;-73
2024/01/22 02:07:27;;;;;;;0.83;0.63;;;5.30;99.90;;;;;;7371423;19;20201;-73
2024/01/22 02:09:55;;;;;;;1.60;0.67;;;5.10;99.90;;;;;;7370676;19;20256;-74
2024/01/22 02:12:21;;;;;;;2.10;0.40;;;5.20;99.90;;;;;;7394035;19;20142;-74
2024/01/22 02:14:47;;;;;;;0.53;0.40;;;5.10;99.90;;;;;;7368700;19;20653;-73
2024/01/22 02:17:14;;;;;;;0.50;0.50;;;5.10;99.90;;;;;;7371642;19;20591;-74
2024/01/22 02:19:40;;;;;;;0.40;0.40;;;5.10;99.90;;;;;;7369761;19;20227;-74
2024/01/22 02:22:06;;;;;;;1.27;0.70;;;5.10;99.90;;;;;;7370257;19;20202;-75
2024/01/22 02:24:31;;;;;;;1.30;1.20;;;5.10;99.90;;;;;;7370588;19;20162;-74
2024/01/22 02:26:57;;;;;;;0.80;0.80;;;5.10;99.90;;;;;;7391103;19;20748;-75
2024/01/22 02:29:23;;;;;;;1.13;0.67;;;5.00;99.90;;;;;;7369993;19;20562;-73
2024/01/22 02:31:50;;;;;;;1.27;0.83;;;4.90;99.90;;;;;;7371301;19;20202;-74
2024/01/22 02:34:16;;;;;;;0.97;0.67;;;5.00;99.90;;;;;;7370910;19;20236;-73
2024/01/22 02:36:42;;;;;;;1.53;1.10;;;5.00;99.90;;;;;;7371770;19;20976;-74
2024/01/22 02:39:08;;;;;;;0.97;0.97;;;4.90;99.90;;;;;;7391804;19;20135;-74
2024/01/22 02:41:33;;;;;;;1.30;0.90;;;4.90;99.90;;;;;;7368769;19;20595;-74
2024/01/22 02:43:59;;;;;;;0.87;0.83;;;4.70;99.90;;;;;;7370540;19;20624;-75
2024/01/22 02:46:25;;;;;;;1.10;1.00;;;4.80;99.90;;;;;;7369169;19;20269;-73
2024/01/22 02:48:51;;;;;;;1.40;1.07;;;4.80;99.90;;;;;;7371587;19;20198;-73
2024/01/22 02:51:19;;;;;;;1.20;1.10;;;4.60;99.90;;;;;;7391294;19;20626;-72
2024/01/22 02:53:45;;;;;;;0.77;0.77;;;4.60;99.90;;;;;;7370665;19;20198;-73
2024/01/22 02:56:16;;;;;;;2.20;1.00;;;4.50;99.90;;;;;;7370129;19;20538;-73
2024/01/22 02:58:42;;;;;;;0.53;0.53;;;4.60;99.90;;;;;;7370966;19;20201;-73
2024/01/22 03:01:07;;;;;;;2.30;1.53;;;4.40;99.90;;;;;;7368528;19;20848;-73
2024/01/22 03:03:33;;;;;;;1.10;1.00;;;4.50;99.90;;;;;;7369716;19;20171;-74
2024/01/22 03:05:59;;;;;;;1.53;1.13;;;4.60;99.90;;;;;;7387636;19;20182;-74
2024/01/22 03:08:24;;;;;;;1.13;1.03;;;4.70;99.90;;;;;;7370357;19;20214;-75
2024/01/22 03:10:50;;;;;;;2.13;1.80;;;4.70;99.90;;;;;;7367815;19;20727;-74
2024/01/22 03:13:16;;;;;;;0.80;0.80;;;4.70;99.90;;;;;;7369909;19;20241;-74
2024/01/22 03:15:41;;;;;;;1.27;1.17;;;4.60;99.90;;;;;;7369678;19;20138;-74
2024/01/22 03:18:08;;;;;;;2.20;1.97;;;4.60;99.90;;;;;;7393510;19;20592;-73
2024/01/22 03:20:35;;;;;;;1.50;1.33;;;4.60;99.90;;;;;;7367972;19;20262;-74
2024/01/22 03:23:01;;;;;;;1.37;1.27;;;4.60;99.90;;;;;;7368618;19;20201;-74
2024/01/22 03:25:26;;;;;;;2.77;1.20;;;4.60;99.90;;;;;;7369835;19;20264;-74
2024/01/22 03:27:52;;;;;;;0.87;0.87;;;4.60;99.90;;;;;;7370610;19;20656;-74
2024/01/22 03:30:18;;;;;;;0.73;0.73;;;4.50;99.90;;;;;;7389492;19;20154;-74
2024/01/22 03:32:43;;;;;;;1.00;0.80;;;4.30;99.90;;;;;;7370738;19;20194;-74
2024/01/22 03:35:09;;;;;;;1.37;1.03;;;4.50;99.90;;;;;;7369486;19;20198;-73
2024/01/22 03:37:35;;;;;;;1.97;1.00;;;4.60;99.90;;;;;;7369957;19;20205;-74
2024/01/22 03:40:00;;;;;;;1.20;1.10;;;4.70;99.90;;;;;;7366548;19;20229;-74
2024/01/22 03:42:26;;;;;;;1.30;1.13;;;4.70;99.90;;;;;;7388794;19;20145;-74
2024/01/22 03:44:53;;;;;;;1.73;1.37;;;4.70;99.90;;;;;;7367857;19;20598;-74
2024/01/22 03:47:18;;;;;;;1.10;1.10;;;4.70;99.90;;;;;;7369294;19;20262;-74
2024/01/22 03:49:44;;;;;;;2.60;1.20;;;4.70;99.90;;;;;;7366931;19;20204;-73
2024/01/22 03:52:10;;;;;;;1.57;1.33;;;4.50;99.90;;;;;;7368468;19;20207;-74
2024/01/22 03:54:36;;;;;;;0.73;0.73;;;4.60;99.90;;;;;;7368708;19;20146;-74
2024/01/22 03:57:06;;;;;;;0.80;0.80;;;4.70;99.90;;;;;;7389050;19;20130;-74
2024/01/22 03:59:34;;;;;;;2.30;1.80;;;4.70;99.90;;;;;;7362181;19;20501;-74
2024/01/22 04:01:59;;;;;;;4.30;1.50;;;4.70;99.90;;;;;;7366721;19;20186;-74
2024/01/22 04:04:25;;;;;;;0.97;0.83;;;4.50;99.90;;;;;;7367671;19;20202;-73
2024/01/22 04:06:51;;;;;;;1.40;1.30;;;4.60;99.90;;;;;;7367944;19;20194;-74
2024/01/22 04:09:16;;;;;;;1.30;0.87;;;4.80;99.90;;;;;;7388803;19;20143;-74
2024/01/22 04:11:42;;;;;;;0.70;0.70;;;4.80;99.90;;;;;;7369528;19;20197;-74
2024/01/22 04:14:08;;;;;;;1.00;0.70;;;4.80;99.90;;;;;;7367728;19;20539;-73
2024/01/22 04:16:33;;;;;;;1.20;0.97;;;4.80;99.90;;;;;;7367185;19;20656;-73
2024/01/22 04:18:59;;;;;;;1.67;1.30;;;4.90;99.90;;;;;;7365989;19;20190;-73
2024/01/22 04:21:27;;;;;;;0.70;0.70;;;5.00;99.90;;;;;;7388162;19;20232;-74
2024/01/22 04:23:52;;;;;;;1.23;1.13;;;5.00;99.90;;;;;;7367119;19;20189;-74
2024/01/22 04:26:18;;;;;;;0.87;0.87;;;5.00;99.90;;;;;;7367633;19;20197;-74
2024/01/22 04:28:44;;;;;;;0.83;0.73;;;5.00;99.90;;;;;;7367015;19;20194;-74
2024/01/22 04:31:10;;;;;;;0.53;0.53;;;5.00;99.90;;;;;;7366919;19;20215;-73
2024/01/22 04:33:35;;;;;;;1.90;0.90;;;5.10;99.90;;;;;;7367061;19;20154;-74
2024/01/22 04:36:01;;;;;;;1.13;0.63;;;5.10;99.90;;;;;;7389512;19;20163;-74
2024/01/22 04:38:28;;;;;;;1.10;0.80;;;5.10;99.90;;;;;;7366357;19;20550;-74
2024/01/22 04:40:54;;;;;;;1.33;1.00;;;5.10;99.90;;;;;;7365452;19;20194;-74
2024/01/22 04:43:21;;;;;;;1.13;1.00;;;5.20;99.90;;;;;;7367002;19;20198;-74
2024/01/22 04:45:48;;;;;;;1.07;0.80;;;5.20;99.90;;;;;;7366428;19;20982;-74
2024/01/22 04:48:14;;;;;;;1.03;0.97;;;5.10;99.90;;;;;;7388306;19;20147;-73
2024/01/22 04:50:39;;;;;;;0.67;0.67;;;4.90;99.90;;;;;;7365673;19;20190;-73
2024/01/22 04:53:05;;;;;;;1.00;0.90;;;5.00;99.90;;;;;;7367517;19;20283;-72
2024/01/22 04:55:31;;;;;;;1.00;0.90;;;5.00;99.90;;;;;;7366990;19;20263;-73
2024/01/22 04:57:57;;;;;;;1.37;1.03;;;5.10;99.90;;;;;;7367456;19;20205;-74
2024/01/22 05:00:22;;;;;;;1.27;1.00;;;5.20;99.90;;;;;;7387529;19;20139;-74
2024/01/22 05:02:48;;;;;;;1.10;1.00;;;5.10;99.90;;;;;;7366843;19;20198;-73
2024/01/22 05:05:14;;;;;;;0.60;0.60;;;5.20;99.90;;;;;;7364342;19;20190;-74
2024/01/22 05:07:40;;;;;;;1.40;0.83;;;5.10;99.90;;;;;;7367062;19;20186;-74
2024/01/22 05:10:10;;;;;;;0.80;0.80;;;5.10;99.90;;;;;;7364131;19;20203;-75
2024/01/22 05:12:42;;;;;;;1.10;1.03;;;5.20;99.90;;;;;;7366638;19;20146;-74
2024/01/22 05:15:10;;;;;;;1.33;0.50;;;5.20;99.90;;;;;;7387169;19;20158;-74
2024/01/22 05:17:36;;;;;;;0.77;0.77;;;5.20;99.90;;;;;;7367159;19;20260;-73
2024/01/22 05:20:02;;;;;;;0.57;0.57;;;5.20;99.90;;;;;;7363701;19;20194;-74
2024/01/22 05:22:28;;;;;;;0.83;0.73;;;5.30;99.90;;;;;;7364922;19;20189;-73
2024/01/22 05:24:54;;;;;;;0.80;0.80;;;5.30;99.90;;;;;;7366597;19;20265;-74
2024/01/22 05:27:19;;;;;;;1.60;1.20;;;5.20;99.90;;;;;;7387545;19;20150;-74
2024/01/22 05:29:45;;;;;;;3.00;1.37;;;5.30;99.90;;;;;;7363664;19;20186;-74
2024/01/22 05:32:11;;;;;;;1.00;1.00;;;5.30;99.90;;;;;;7365630;19;20198;-73
2024/01/22 05:34:36;;;;;;;2.10;1.10;;;5.20;99.90;;;;;;7366130;19;20609;-74
2024/01/22 05:37:02;;;;;;;1.67;0.63;;;5.20;99.90;;;;;;7366638;19;20190;-74
2024/01/22 05:39:28;;;;;;;1.50;1.10;;;5.10;99.90;;;;;;7386221;19;20214;-74
2024/01/22 05:41:54;;;;;;;1.53;1.17;;;5.20;99.90;;;;;;7364832;19;20186;-75
2024/01/22 05:44:20;;;;;;;0.97;0.90;;;5.30;99.90;;;;;;7365966;19;20190;-75
2024/01/22 05:46:46;;;;;;;1.37;1.27;;;5.10;99.90;;;;;;7366447;19;20190;-74
2024/01/22 05:49:12;;;;;;;0.70;0.60;;;5.20;99.90;;;;;;7363427;19;20221;-74
2024/01/22 05:51:37;;;;;;;1.20;1.10;;;5.30;99.90;;;;;;7365320;19;20150;-74
2024/01/22 05:54:03;;;;;;;1.57;0.87;;;5.30;99.90;;;;;;7386954;19;20146;-74
2024/01/22 05:56:29;;;;;;;1.27;1.00;;;5.30;99.90;;;;;;7365664;19;20218;-75
2024/01/22 05:58:56;;;;;;;1.33;0.77;;;5.40;99.90;;;;;;7365782;19;20198;-75
2024/01/22 06:01:24;;;;;;;0.80;0.60;;;5.40;99.90;;;;;;7364915;19;20189;-75
2024/01/22 06:03:50;;;;;;;1.03;0.93;;;5.50;99.90;;;;;;7364983;19;20660;-75
2024/01/22 06:06:17;;;;;;;0.60;0.60;;;5.20;99.90;;;;;;7387148;19;20227;-75
2024/01/22 06:08:43;;;;;;;0.70;0.60;;;5.30;99.90;;;;;;7365601;19;20231;-75
2024/01/22 06:11:10;;;;;;;1.80;1.07;;;5.40;99.90;;;;;;7363828;19;20237;-74
2024/01/22 06:13:41;;;;;;;1.30;0.57;;;5.50;99.90;;;;;;7364551;19;20223;-74
2024/01/22 06:16:10;;;;;;;1.13;1.00;;;5.50;99.90;;;;;;7364256;19;20182;-74
2024/01/22 06:18:36;;;;;;;0.40;0.40;;;5.50;99.90;;;;;;7363250;19;20141;-73
2024/01/22 06:21:04;;;;;;;1.07;0.73;;;5.60;99.90;;;;;;7381907;19;20986;-74
2024/01/22 06:23:32;;;;;;;1.43;1.13;;;5.60;99.90;;;;;;7365221;19;20282;-74
2024/01/22 06:25:59;;;;;;;1.10;1.00;;;5.60;99.90;;;;;;7363706;19;20185;-75
2024/01/22 06:28:26;;;;;;;1.50;1.30;;;5.60;99.90;;;;;;7361794;19;20210;-75
2024/01/22 06:30:53;;;;;;;1.20;0.83;;;5.60;99.90;;;;;;7360663;19;20271;-75
2024/01/22 06:33:20;;;;;;;1.13;1.03;;;5.70;99.90;;;;;;7386390;19;20142;-74
2024/01/22 06:35:46;;;;;;;0.80;0.70;;;5.70;99.90;;;;;;7364277;19;20201;-75
2024/01/22 06:38:12;;;;;;;1.50;0.80;;;5.60;99.90;;;;;;7364042;19;20186;-76
2024/01/22 06:40:38;;;;;;;0.90;0.90;;;5.70;99.90;;;;;;7356568;19;20214;-75
2024/01/22 06:43:04;;;;;;;1.20;1.10;;;5.70;99.90;;;;;;7363985;19;20702;-74
2024/01/22 06:45:30;;;;;;;2.27;1.17;;;5.80;99.90;;;;;;7371814;19;20155;-73
2024/01/22 06:47:56;;;;;;;1.17;0.90;;;5.80;99.90;;;;;;7392761;19;20608;-75
2024/01/22 06:50:22;;;;;;;1.20;1.10;;;5.70;99.90;;;;;;7369410;19;20198;-73
2024/01/22 06:52:48;;;;;;;1.33;1.07;;;5.70;99.90;;;;;;7371521;19;20860;-74
2024/01/22 06:55:15;;;;;;;0.80;0.80;;;5.80;99.90;;;;;;7370031;19;20201;-73
2024/01/22 06:57:41;;;;;;;0.90;0.90;;;5.70;99.90;;;;;;7366476;19;20170;-73
2024/01/22 07:00:07;;;;;;;0.77;0.67;;;5.70;99.90;;;;;;7388152;19;20151;-74
2024/01/22 07:02:41;;;;;;;0.53;0.40;;;5.80;99.90;;;;;;7366327;19;20261;-74
2024/01/22 07:05:08;;;;;;;0.40;0.40;;;6.00;99.90;;;;;;7369511;19;20267;-73
2024/01/22 07:07:35;;;;;;;0.60;0.60;;;6.20;99.90;;;;;;7369937;19;20194;-73
2024/01/22 07:10:01;;;;;;;0.47;0.47;;;6.30;99.90;;;;;;7369232;19;20230;-74
2024/01/22 07:12:29;;;;;;;1.30;0.63;;;6.40;99.90;;;;;;7390849;19;20261;-75
2024/01/22 07:14:55;;;;;;;0.83;0.63;;;6.60;99.90;;;;;;7370861;19;20643;-74
2024/01/22 07:17:21;;;;;;;0.57;0.57;;;6.70;99.90;;;;;;7362239;19;20209;-74
2024/01/22 07:19:47;;;;;;;0.50;0.50;;;6.70;99.90;;;;;;7366401;19;20700;-74
2024/01/22 07:22:12;;;;;;;1.03;0.90;;;6.80;99.90;;;;;;7368029;19;20286;-74
2024/01/22 07:24:39;;;;;;;1.67;0.70;;;6.90;99.90;;;;;;7360923;19;20646;-75
2024/01/22 07:27:05;;;;;;;0.67;0.60;;;6.80;99.90;;;;;;7366992;19;20197;-74
2024/01/22 07:29:31;;;;;;;0.70;0.40;;;6.80;99.90;;;;;;7366635;19;20261;-74
2024/01/22 07:31:57;;;;;;;1.27;0.80;;;7.00;99.90;;;;;;7391324;19;20154;-74
2024/01/22 07:34:23;;;;;;;0.77;0.60;;;7.00;99.90;;;;;;7369278;19;20602;-75
2024/01/22 07:36:49;;;;;;;0.37;0.37;;;6.90;99.90;;;;;;7367822;19;20205;-74
2024/01/22 07:39:15;;;;;;;1.17;0.53;;;6.90;99.90;;;;;;7367614;19;20285;-75
2024/01/22 07:41:41;;;;;;;0.40;0.40;;;6.90;99.90;;;;;;7368096;19;20198;-75
2024/01/22 07:44:07;;;;;;;0.60;0.40;;;6.80;99.90;;;;;;7367542;19;20580;-75
2024/01/22 07:46:34;;;;;;;0.50;0.50;;;7.10;99.90;;;;;;7391355;19;20146;-74
2024/01/22 07:49:00;;;;;;;1.03;0.50;;;7.20;99.90;;;;;;7367612;19;20193;-75
2024/01/22 07:51:26;;;;;;;0.23;0.23;;;7.30;99.90;;;;;;7366627;19;20193;-75
2024/01/22 07:53:52;;;;;;;0.37;0.37;;;7.30;99.90;;;;;;7365469;19;20221;-74
2024/01/22 07:56:17;;;;;;;0.90;0.60;;;7.30;99.90;;;;;;7369256;19;20131;-74
2024/01/22 07:58:44;;;;;;;1.13;0.63;;;7.40;99.90;;;;;;7389833;19;20138;-75
2024/01/22 08:01:10;;;;;;;0.50;0.50;;;7.30;99.90;;;;;;7367343;19;20182;-79
2024/01/22 08:03:36;;;;;;;1.60;1.03;;;7.30;99.90;;;;;;7368276;19;20210;-76
2024/01/22 08:06:01;;;;;;;1.50;0.73;;;7.40;99.90;;;;;;7366069;19;20201;-76
2024/01/22 08:08:28;;;;;;;1.13;0.77;;;7.40;99.90;;;;;;7368943;19;20194;-76
2024/01/22 08:10:54;;;;;;;0.40;0.40;;;7.50;99.90;;;;;;7361607;19;20158;-76
2024/01/22 08:13:21;;;;;;;1.07;0.83;;;7.60;99.90;;;;;;7389890;19;20137;-76
2024/01/22 08:15:50;;;;;;;0.70;0.70;;;7.60;99.90;;;;;;7367648;19;20256;-76
2024/01/22 08:18:16;;;;;;;0.60;0.50;;;7.70;99.90;;;;;;7367639;19;20196;-76
2024/01/22 08:20:42;;;;;;;0.60;0.50;;;7.40;99.90;;;;;;7318130;19;20623;-75
2024/01/22 08:23:11;;;;;;;0.83;0.80;;;7.40;99.90;;;;;;7390193;19;20126;-75
2024/01/22 08:25:38;;;;;;;0.87;0.80;;;7.40;99.90;;;;;;7367658;19;20205;-76
2024/01/22 08:28:05;;;;;;;0.73;0.70;;;7.40;99.90;;;;;;7369018;19;20310;-76
2024/01/22 08:30:31;;;;;;;1.80;0.80;;;7.30;99.90;;;;;;7365528;19;20309;-75
2024/01/22 08:32:57;;;;;;;2.47;1.10;;;7.20;99.90;;;;;;7368208;19;20142;-77
2024/01/22 08:35:23;;;;;;;1.77;1.10;;;7.30;99.90;;;;;;7391518;19;20216;-75
2024/01/22 08:37:52;;;;;;;2.43;1.50;;;7.20;99.90;;;;;;7367582;19;20273;-74
2024/01/22 08:40:21;;;;;;;1.20;0.80;;;7.20;99.90;;;;;;7363347;19;20194;-76
2024/01/22 08:42:54;;;;;;;0.40;0.40;;;7.20;99.90;;;;;;7366740;19;20200;-76
2024/01/22 08:45:21;;;;;;;0.90;0.73;;;7.30;99.90;;;;;;7366216;19;20555;-76
2024/01/22 08:47:48;;;;;;;0.80;0.40;;;7.50;99.90;;;;;;7365736;19;20139;-75
2024/01/22 08:50:17;;;;;;;0.80;0.57;;;7.60;99.90;;;;;;7360019;19;20196;-75
2024/01/22 08:52:45;;;;;;;2.10;1.07;;;7.70;99.90;;;;;;7365996;19;20201;-75
2024/01/22 08:55:11;;;;;;;0.60;0.60;;;7.90;99.90;;;;;;7359350;19;20210;-74
2024/01/22 08:57:37;;;;;;;2.10;1.33;;;7.90;99.90;;;;;;7366409;19;20193;-75
2024/01/22 09:00:10;;;;;;;0.90;0.60;;;7.90;99.90;;;;;;7365803;19;20142;-75
2024/01/22 09:02:39;;;;;;;3.47;1.80;;;7.90;99.90;;;;;;7358514;19;20720;-74
2024/01/22 09:05:09;;;;;;;0.90;0.73;;;7.80;99.90;;;;;;7361731;19;20190;-76
2024/01/22 09:07:36;;;;;;;0.73;0.70;;;7.80;99.90;;;;;;7387748;19;20597;-74
2024/01/22 09:10:05;;;;;;;2.37;1.50;;;7.80;99.90;;;;;;7364832;19;20194;-76
2024/01/22 09:12:31;;;;;;;0.80;0.70;;;7.90;99.90;;;;;;7366930;19;20186;-76
2024/01/22 09:14:57;;;;;;;0.70;0.70;;;7.90;99.90;;;;;;7366379;19;20269;-75
2024/01/22 09:17:24;;;;;;;0.70;0.70;;;7.90;99.90;;;;;;7364488;19;20186;-76
2024/01/22 09:19:50;;;;;;;1.13;0.77;;;7.90;99.90;;;;;;7388486;19;20511;-76
2024/01/22 09:22:16;;;;;;;0.40;0.40;;;8.00;99.90;;;;;;7363664;19;20222;-74
2024/01/22 09:24:41;;;;;;;0.27;0.20;;;8.40;99.90;;;;;;7367505;19;20273;-75
2024/01/22 09:27:07;;;;;;;0.87;0.60;;;9.00;99.90;;;;;;7363249;19;20229;-74
2024/01/22 09:29:33;;;;;;;0.20;0.20;;;9.40;99.90;;;;;;7364094;19;20198;-73
2024/01/22 09:31:59;;;;;;;0.53;0.43;;;9.80;99.90;;;;;;7365545;19;20139;-74
2024/01/22 09:34:24;;;;;;;0.40;0.40;;;10.00;99.90;;;;;;7388328;19;20194;-74
2024/01/22 09:36:50;;;;;;;0.20;0.20;;;10.20;99.90;;;;;;7366035;19;20285;-73
2024/01/22 09:39:16;;;;;;;0.40;0.40;;;10.30;99.90;;;;;;7363437;19;20319;-74
2024/01/22 09:41:42;;;;;;;1.10;0.80;;;10.40;99.90;;;;;;7364302;19;20233;-74
2024/01/22 09:44:08;;;;;;;2.00;1.30;;;10.50;99.90;;;;;;7364577;19;20226;-75
2024/01/22 09:46:35;;;;;;;0.30;0.30;;;10.70;99.90;;;;;;7384778;19;20554;-75
2024/01/22 09:49:01;;;;;;;0.20;0.20;;;10.70;99.90;;;;;;7365273;19;20232;-73
2024/01/22 09:51:28;;;;;;;0.30;0.30;;;10.70;99.90;;;;;;7365570;19;20238;-74
2024/01/22 09:54:03;;;;;;;0.50;0.50;;;10.80;99.90;;;;;;7364494;19;20523;-75
2024/01/22 09:56:30;;;;;;;0.33;0.33;;;10.80;99.90;;;;;;7365050;19;20208;-73
2024/01/22 09:59:04;;;;;;;0.43;0.40;;;10.90;99.90;;;;;;7366530;19;20143;-74
2024/01/22 10:01:31;;;;;;;0.40;0.40;;;10.90;99.90;;;;;;7381121;19;20587;-74
2024/01/22 10:03:57;;;;;;;0.30;0.30;;;11.00;99.90;;;;;;7364369;19;20198;-75
2024/01/22 10:06:24;;;;;;;0.23;0.23;;;11.00;99.90;;;;;;7364806;19;20671;-74
2024/01/22 10:08:59;;;;;;;0.57;0.57;;;11.10;99.90;;;;;;7363370;19;20186;-75
2024/01/22 10:11:25;;;;;;;0.20;0.20;;;11.20;99.90;;;;;;7362837;19;20218;-74
2024/01/22 10:13:51;;;;;;;0.20;0.20;;;11.30;99.90;;;;;;7383839;19;20143;-74
2024/01/22 10:16:17;;;;;;;0.30;0.30;;;11.30;99.90;;;;;;7369584;19;20188;-75
2024/01/22 10:19:05;;;;;;;0.53;0.40;;;11.40;99.90;;;;;;7370578;19;20182;-75
2024/01/22 10:21:31;;;;;;;0.20;0.20;;;11.40;99.90;;;;;;7372242;19;20182;-75
2024/01/22 10:24:00;;;;;;;0.30;0.30;;;11.40;99.90;;;;;;7372343;19;20182;-74
2024/01/22 10:26:27;;;;;;;0.88;0.57;;;11.40;99.90;;;;;;7372705;19;20793;-76
2024/01/22 10:28:54;;;;;;;0.65;0.50;;;11.40;99.90;;;;;;7377522;19;20206;-75
2024/01/22 10:31:20;;;;;;;0.80;0.43;;;11.50;99.90;;;;;;7393764;19;20154;-75
2024/01/22 10:33:46;;;;;;;0.37;0.37;;;11.50;99.90;;;;;;7369645;19;20542;-75
2024/01/22 10:36:19;;;;;;;0.47;0.40;;;11.40;99.90;;;;;;7371482;19;20194;-74
2024/01/22 10:38:46;;;;;;;0.63;0.60;;;11.40;99.90;;;;;;7370302;19;20739;-74
2024/01/22 10:41:21;;;;;;;0.30;0.30;;;11.40;99.90;;;;;;7368998;19;20157;-74
2024/01/22 10:43:49;;;;;;;0.43;0.40;;;11.40;99.90;;;;;;7391123;19;20130;-73
2024/01/22 10:46:17;;;;;;;0.30;0.30;;;11.40;99.90;;;;;;7369423;19;20265;-74
2024/01/22 10:48:44;;;;;;;0.30;0.30;;;11.40;99.90;;;;;;7370808;19;20201;-74
2024/01/22 10:51:10;;;;;;;0.47;0.38;;;11.50;99.90;;;;;;7368948;19;20209;-75
2024/01/22 10:53:39;;;;;;;0.40;0.40;;;11.50;99.90;;;;;;7371173;19;20202;-75
2024/01/22 10:56:24;;;;;;;0.33;0.33;;;11.50;99.90;;;;;;7370469;19;20164;-74
2024/01/22 10:58:54;;;;;;;0.35;0.30;;;11.50;99.90;;;;;;7393632;19;20155;-74
2024/01/22 11:01:23;;;;;;;0.20;0.20;;;11.50;99.90;;;;;;7369260;19;20190;-73
2024/01/22 11:03:51;;;;;;;0.38;0.38;;;11.50;99.90;;;;;;7369223;19;20269;-75
2024/01/22 11:06:21;;;;;;;0.40;0.40;;;11.50;99.90;;;;;;7370774;19;20194;-74
2024/01/22 11:08:54;;;;;;;0.28;0.28;;;11.60;99.90;;;;;;7370133;19;21019;-73
2024/01/22 11:11:25;;;;;;;0.65;0.40;;;11.60;99.90;;;;;;7369411;19;20182;-78
2024/01/22 11:13:55;;;;;;;0.75;0.50;;;11.70;99.90;;;;;;7394301;19;20134;-74
2024/01/22 11:16:21;;;;;;;0.30;0.30;;;11.80;99.90;;;;;;7369874;19;20186;-75
2024/01/22 11:18:55;;;;;;;0.38;0.38;;;11.90;99.90;;;;;;7369428;19;20298;-75
2024/01/22 11:21:21;;;;;;;0.40;0.40;;;11.90;99.90;;;;;;7369914;19;20193;-75
2024/01/22 11:24:19;;;;;;;0.30;0.30;;;12.10;99.90;;;;;;7369144;19;20182;-75
2024/01/22 11:26:45;;;;;;;1.63;0.65;;;12.10;99.90;;;;;;7367969;19;20186;-73
2024/01/22 11:29:16;;;;;;;0.25;0.25;;;12.10;99.90;;;;;;7367690;19;20126;-75
2024/01/22 11:31:42;;;;;;;0.38;0.38;;;12.20;99.90;;;;;;7391524;19;20134;-74
2024/01/22 11:34:10;;;;;;;0.50;0.50;;;12.10;99.90;;;;;;7369555;19;20194;-74
2024/01/22 11:36:57;;;;;;;0.35;0.35;;;12.10;99.90;;;;;;7366872;19;20202;-74
2024/01/22 11:39:35;;;;;;;0.15;0.15;;;12.20;99.90;;;;;;7368642;19;20197;-75
2024/01/22 11:42:16;;;;;;;0.20;0.20;;;12.20;99.90;;;;;;7369420;19;20207;-75
2024/01/22 11:44:51;;;;;;;0.22;0.20;;;12.10;99.90;;;;;;7368254;19;20206;-74
2024/01/22 11:47:18;;;;;;;1.55;0.40;;;12.10;99.90;;;;;;7369781;19;20189;-75
2024/01/22 11:49:45;;;;;;;0.40;0.40;;;12.10;99.90;;;;;;7388424;19;20757;-75
2024/01/22 11:52:15;;;;;;;0.20;0.20;;;12.00;99.90;;;;;;7369498;19;20750;-75
2024/01/22 11:55:02;;;;;;;0.30;0.30;;;12.00;99.90;;;;;;7369912;19;20193;-74
2024/01/22 11:57:31;;;;;;;0.30;0.30;;;12.00;99.90;;;;;;7370151;19;20707;-75
2024/01/22 12:00:05;;;;;;;0.50;0.50;;;12.00;99.90;;;;;;7365750;19;20741;-74
2024/01/22 12:02:34;;;;;;;0.63;0.43;;;12.10;99.90;;;;;;7364504;19;20182;-74
2024/01/22 12:05:10;;;;;;;0.55;0.55;;;12.00;99.90;;;;;;7367709;19;20193;-73
2024/01/22 12:07:38;;;;;;;0.73;0.52;;;12.00;99.90;;;;;;7390529;19;20243;-74
2024/01/22 12:10:05;;;;;;;0.90;0.28;;;12.00;99.90;;;;;;7366624;19;20198;-74
2024/01/22 12:12:31;;;;;;;0.30;0.30;;;12.00;99.90;;;;;;7367147;19;20257;-74
2024/01/22 12:14:58;;;;;;;0.50;0.50;;;12.10;99.90;;;;;;7367362;19;20194;-75
2024/01/22 12:17:25;;;;;;;1.00;0.30;;;12.20;99.90;;;;;;7367709;19;20727;-75
2024/01/22 12:19:54;;;;;;;0.10;0.10;;;12.30;99.90;;;;;;7389287;19;20135;-74
2024/01/22 12:22:22;;;;;;;0.32;0.30;;;12.20;99.90;;;;;;7366720;19;20206;-76
2024/01/22 12:25:07;;;;;;;0.20;0.20;;;12.30;99.90;;;;;;7368222;19;20295;-74
2024/01/22 12:27:34;;;;;;;0.20;0.20;;;12.30;99.90;;;;;;7366639;19;20190;-75
2024/01/22 12:30:00;;;;;;;0.50;0.50;;;12.40;99.90;;;;;;7365008;19;20766;-75
2024/01/22 12:32:26;;;;;;;0.30;0.30;;;12.40;99.90;;;;;;7366399;19;20194;-75
2024/01/22 12:34:59;;;;;;;0.28;0.28;;;12.40;99.90;;;;;;7388270;19;20150;-76
2024/01/22 12:37:30;;;;;;;0.20;0.20;;;12.50;99.90;;;;;;7390678;19;20158;-75
2024/01/22 12:40:16;;;;;;;0.30;0.30;;;12.40;99.90;;;;;;7364917;19;20194;-74
2024/01/22 12:42:49;;;;;;;0.30;0.30;;;12.40;99.90;;;;;;7367958;19;20300;-75
2024/01/22 12:45:19;;;;;;;0.20;0.20;;;12.30;99.90;;;;;;7367191;19;20194;-73
2024/01/22 12:47:49;;;;;;;1.38;0.55;;;12.30;99.90;;;;;;7366022;19;20198;-73
2024/01/22 12:50:18;;;;;;;0.20;0.20;;;12.30;99.90;;;;;;7367255;19;20813;-74
2024/01/22 12:52:44;;;;;;;0.30;0.30;;;12.30;99.90;;;;;;7362693;19;20207;-75
2024/01/22 12:55:14;;;;;;;0.30;0.30;;;12.30;99.90;;;;;;7365281;19;20234;-75